Wetterstation Vordersexau
Wetterdaten: Woche 11.07.11 - 17.07.11 (KW28)
Datum Zeit Temp. A. Feuchte A. Luftdruck Regen Wind Richtung Taupunkt Windchill Windben
11.07.2011 00:00 18,3 C 79 % 1017,4 hPa 0,0 l/m 3,9 km/h N-NW 14,6 C 18,3 C 2,2 km/h
11.07.2011 01:00 16,9 C 81 % 1017,4 hPa 0,0 l/m 0,0 km/h N-NW 13,6 C 16,9 C 0,0 km/h
11.07.2011 02:00 15,3 C 83 % 1017,6 hPa 0,0 l/m 0,0 km/h O 12,4 C 15,3 C 0,0 km/h
11.07.2011 03:00 13,9 C 85 % 1017,6 hPa 0,0 l/m 0,0 km/h O-NO 11,4 C 13,9 C 0,0 km/h
11.07.2011 04:00 13,2 C 85 % 1017,7 hPa 0,0 l/m 0,0 km/h NO 10,7 C 13,2 C 0,0 km/h
11.07.2011 05:00 12,3 C 86 % 1017,7 hPa 0,0 l/m 0,0 km/h NO 10,0 C 12,3 C 0,0 km/h
11.07.2011 06:00 12,1 C 85 % 1017,9 hPa 0,0 l/m 0,0 km/h N-NO 9,7 C 12,1 C 0,0 km/h
11.07.2011 07:00 13,9 C 84 % 1017,7 hPa 0,0 l/m 0,0 km/h NW 11,2 C 13,9 C 0,0 km/h
11.07.2011 08:00 23,1 C 66 % 1017,9 hPa 0,0 l/m 0,0 km/h W-SW 16,4 C 23,1 C 0,0 km/h
11.07.2011 09:00 25,3 C 60 % 1017,9 hPa 0,0 l/m 0,0 km/h W-NW 17,0 C 25,3 C 0,0 km/h
11.07.2011 10:00 27,1 C 55 % 1017,6 hPa 0,0 l/m 18,1 km/h W 17,3 C 25,5 C 10,1 km/h
11.07.2011 11:00 28,3 C 51 % 1017,4 hPa 0,0 l/m 10,4 km/h W 17,2 C 27,8 C 5,8 km/h
11.07.2011 12:00 25,9 C 57 % 1017,0 hPa 0,0 l/m 1,9 km/h NW 16,7 C 25,9 C 1,1 km/h
11.07.2011 13:00 26,8 C 57 % 1016,7 hPa 0,0 l/m 16,2 km/h NW 17,6 C 25,4 C 9,0 km/h
11.07.2011 14:00 27,5 C 53 % 1016,4 hPa 0,0 l/m 6,5 km/h W-SW 17,0 C 27,5 C 3,6 km/h
11.07.2011 15:00 29,3 C 50 % 1016,0 hPa 0,0 l/m 25,3 km/h W-SW 17,8 C 28,0 C 14,0 km/h
11.07.2011 16:00 33,0 C 41 % 1015,4 hPa 0,0 l/m 10,4 km/h N-NW 18,0 C 33,0 C 5,8 km/h
11.07.2011 17:00 33,8 C 39 % 1015,3 hPa 0,0 l/m 0,0 km/h N-NO 17,9 C 33,8 C 0,0 km/h
11.07.2011 18:00 33,9 C 38 % 1014,8 hPa 0,0 l/m 0,0 km/h N 17,5 C 33,9 C 0,0 km/h
11.07.2011 19:00 29,6 C 44 % 1014,6 hPa 0,0 l/m 0,0 km/h N-NO 16,0 C 29,6 C 0,0 km/h
11.07.2011 20:00 24,9 C 56 % 1014,5 hPa 0,0 l/m 0,0 km/h NO 15,5 C 24,9 C 0,0 km/h
11.07.2011 21:00 21,0 C 70 % 1014,7 hPa 0,0 l/m 0,0 km/h O-NO 15,3 C 21,0 C 0,0 km/h
11.07.2011 22:00 18,8 C 77 % 1014,8 hPa 0,0 l/m 0,0 km/h NO 14,7 C 18,8 C 0,0 km/h
11.07.2011 23:00 17,9 C 80 % 1014,4 hPa 0,0 l/m 0,0 km/h SO 14,4 C 17,9 C 0,0 km/h
12.07.2011 00:00 16,6 C 83 % 1014,0 hPa 0,0 l/m 0,0 km/h SO 13,7 C 16,6 C 0,0 km/h
12.07.2011 01:00 15,6 C 84 % 1013,9 hPa 0,0 l/m 0,0 km/h SO 12,9 C 15,6 C 0,0 km/h
12.07.2011 02:00 14,6 C 85 % 1013,5 hPa 0,0 l/m 1,9 km/h S-SO 12,1 C 14,6 C 1,1 km/h
12.07.2011 03:00 14,3 C 85 % 1013,5 hPa 0,0 l/m 0,0 km/h S-SO 11,8 C 14,3 C 0,0 km/h
12.07.2011 04:00 13,4 C 85 % 1013,3 hPa 0,0 l/m 0,0 km/h O-NO 10,9 C 13,4 C 0,0 km/h
12.07.2011 05:00 13,4 C 85 % 1012,8 hPa 0,0 l/m 0,0 km/h O-NO 10,9 C 13,4 C 0,0 km/h
12.07.2011 06:00 14,6 C 85 % 1013,0 hPa 0,0 l/m 0,0 km/h SO 12,1 C 14,6 C 0,0 km/h
12.07.2011 07:00 15,9 C 86 % 1012,2 hPa 0,0 l/m 0,0 km/h SW 13,6 C 15,9 C 0,0 km/h
12.07.2011 08:00 26,1 C 61 % 1011,4 hPa 0,0 l/m 0,0 km/h W-NW 18,0 C 26,1 C 0,0 km/h
12.07.2011 09:00 28,7 C 53 % 1011,2 hPa 0,0 l/m 0,0 km/h NO 18,2 C 28,7 C 0,0 km/h
12.07.2011 10:00 30,2 C 48 % 1010,8 hPa 0,0 l/m 0,0 km/h SW 17,9 C 30,2 C 0,0 km/h
12.07.2011 11:00 31,9 C 46 % 1010,4 hPa 0,0 l/m 0,0 km/h N-NO 18,8 C 31,9 C 0,0 km/h
12.07.2011 12:00 30,8 C 49 % 1009,6 hPa 0,0 l/m 5,8 km/h NW 18,8 C 30,8 C 3,2 km/h
12.07.2011 13:00 32,2 C 49 % 1009,0 hPa 0,0 l/m 0,0 km/h SO 20,1 C 32,2 C 0,0 km/h
12.07.2011 14:00 34,2 C 47 % 1007,8 hPa 0,0 l/m 0,0 km/h W-NW 21,2 C 34,2 C 0,0 km/h
12.07.2011 15:00 35,1 C 45 % 1007,4 hPa 0,0 l/m 0,0 km/h W-NW 21,3 C 35,1 C 0,0 km/h
12.07.2011 16:00 36,9 C 42 % 1006,9 hPa 0,0 l/m 0,0 km/h W-NW 21,8 C 36,9 C 0,0 km/h
12.07.2011 17:00 33,6 C 47 % 1006,8 hPa 0,0 l/m 0,0 km/h S-SW 20,7 C 33,6 C 0,0 km/h
12.07.2011 18:00 28,8 C 59 % 1006,5 hPa 0,0 l/m 0,0 km/h N-NO 20,0 C 28,8 C 0,0 km/h
12.07.2011 19:00 22,9 C 80 % 1007,0 hPa 5,3 l/m 0,0 km/h N-NO 19,3 C 22,9 C 0,0 km/h
12.07.2011 20:00 21,3 C 81 % 1007,8 hPa 0,0 l/m 18,8 km/h SO 17,9 C 18,1 C 10,4 km/h
12.07.2011 21:00 20,3 C 84 % 1008,2 hPa 0,4 l/m 24,0 km/h N-NO 17,5 C 15,9 C 13,3 km/h
12.07.2011 22:00 20,2 C 85 % 1007,1 hPa 0,0 l/m 0,0 km/h S-SO 17,6 C 20,2 C 0,0 km/h
12.07.2011 23:00 18,5 C 84 % 1008,9 hPa 2,5 l/m 7,1 km/h SO 15,7 C 18,2 C 4,0 km/h
13.07.2011 00:00 18,2 C 84 % 1008,5 hPa 2,8 l/m 10,4 km/h SO 15,4 C 16,5 C 5,8 km/h
13.07.2011 01:00 17,8 C 84 % 1008,1 hPa 0,7 l/m 13,0 km/h S-SO 15,1 C 15,2 C 7,2 km/h
13.07.2011 02:00 17,7 C 84 % 1007,0 hPa 0,7 l/m 0,0 km/h NO 15,0 C 17,7 C 0,0 km/h
13.07.2011 03:00 18,1 C 83 % 1009,1 hPa 0,0 l/m 20,1 km/h SO 15,2 C 13,7 C 11,2 km/h
13.07.2011 04:00 18,1 C 83 % 1008,0 hPa 0,7 l/m 0,0 km/h NO 15,2 C 18,1 C 0,0 km/h
13.07.2011 05:00 18,1 C 83 % 1007,5 hPa 0,0 l/m 26,6 km/h O-SO 15,2 C 12,5 C 14,8 km/h
13.07.2011 06:00 17,8 C 83 % 1007,4 hPa 0,0 l/m 26,6 km/h O-SO 14,9 C 12,1 C 14,8 km/h
13.07.2011 07:00 18,4 C 83 % 1007,6 hPa 0,0 l/m 0,0 km/h SW 15,5 C 18,4 C 0,0 km/h
13.07.2011 08:00 19,3 C 85 % 1008,3 hPa 0,0 l/m 0,0 km/h N-NO 16,7 C 19,3 C 0,0 km/h
13.07.2011 09:00 22,6 C 81 % 1006,8 hPa 0,0 l/m 0,0 km/h SO 19,2 C 22,6 C 0,0 km/h
13.07.2011 10:00 24,3 C 75 % 1006,5 hPa 0,0 l/m 0,6 km/h SW 19,6 C 24,3 C 0,4 km/h
13.07.2011 11:00 24,3 C 67 % 1006,1 hPa 0,0 l/m 0,0 km/h W-NW 17,8 C 24,3 C 0,0 km/h
13.07.2011 12:00 23,4 C 70 % 1006,5 hPa 0,0 l/m 0,0 km/h O-NO 17,6 C 23,4 C 0,0 km/h
13.07.2011 13:00 24,8 C 77 % 1005,7 hPa 0,4 l/m 0,0 km/h N-NO 20,5 C 24,8 C 0,0 km/h
13.07.2011 14:00 25,9 C 68 % 1005,6 hPa 0,0 l/m 0,0 km/h S-SW 19,5 C 25,9 C 0,0 km/h
13.07.2011 15:00 23,5 C 72 % 1006,2 hPa 0,0 l/m 21,4 km/h W 18,2 C 20,5 C 11,9 km/h
13.07.2011 16:00 22,7 C 74 % 1006,5 hPa 0,0 l/m 22,7 km/h S-SO 17,8 C 19,3 C 12,6 km/h
13.07.2011 17:00 17,9 C 83 % 1007,9 hPa 0,0 l/m 0,0 km/h NO 15,0 C 17,9 C 0,0 km/h
13.07.2011 18:00 17,4 C 84 % 1008,3 hPa 0,4 l/m 0,0 km/h NW 14,7 C 17,4 C 0,0 km/h
13.07.2011 19:00 16,5 C 85 % 1009,1 hPa 0,7 l/m 11,0 km/h N-NO 14,0 C 14,4 C 6,1 km/h
13.07.2011 20:00 15,1 C 85 % 1010,2 hPa 0,7 l/m 3,2 km/h N 12,6 C 15,1 C 1,8 km/h
13.07.2011 21:00 14,4 C 86 % 1011,3 hPa 3,2 l/m 0,0 km/h SW 12,1 C 14,4 C 0,0 km/h
13.07.2011 22:00 14,3 C 85 % 1012,9 hPa 1,1 l/m 0,0 km/h S-SO 11,8 C 14,3 C 0,0 km/h
13.07.2011 23:00 14,2 C 84 % 1013,6 hPa 0,7 l/m 0,0 km/h W 11,5 C 14,2 C 0,0 km/h
14.07.2011 00:00 13,9 C 84 % 1014,5 hPa 0,0 l/m 0,0 km/h W-SW 11,2 C 13,9 C 0,0 km/h
14.07.2011 01:00 13,8 C 85 % 1015,0 hPa 0,4 l/m 0,0 km/h W-SW 11,3 C 13,8 C 0,0 km/h
14.07.2011 02:00 13,6 C 86 % 1015,1 hPa 0,0 l/m 0,0 km/h W-SW 11,3 C 13,6 C 0,0 km/h
14.07.2011 03:00 13,4 C 86 % 1015,3 hPa 0,0 l/m 0,0 km/h W-SW 11,1 C 13,4 C 0,0 km/h
14.07.2011 04:00 13,5 C 86 % 1015,4 hPa 0,0 l/m 0,0 km/h W-SW 11,2 C 13,5 C 0,0 km/h
14.07.2011 05:00 13,2 C 86 % 1015,8 hPa 0,0 l/m 0,0 km/h S-SW 10,9 C 13,2 C 0,0 km/h
14.07.2011 06:00 13,2 C 86 % 1016,0 hPa 0,0 l/m 0,0 km/h W 10,9 C 13,2 C 0,0 km/h
14.07.2011 07:00 14,4 C 86 % 1016,2 hPa 0,0 l/m 0,6 km/h W-SW 12,1 C 14,4 C 0,4 km/h
14.07.2011 08:00 15,3 C 84 % 1016,5 hPa 0,0 l/m 9,1 km/h SW 12,6 C 13,9 C 5,0 km/h
14.07.2011 09:00 20,8 C 62 % 1016,8 hPa 0,0 l/m 19,4 km/h N 13,2 C 17,3 C 10,8 km/h
14.07.2011 10:00 16,8 C 69 % 1017,1 hPa 0,0 l/m 9,7 km/h NW 11,1 C 15,2 C 5,4 km/h
14.07.2011 11:00 17,8 C 62 % 1017,3 hPa 0,0 l/m 0,0 km/h W 10,4 C 17,8 C 0,0 km/h
14.07.2011 12:00 18,3 C 60 % 1017,3 hPa 0,0 l/m 2,6 km/h NW 10,4 C 18,3 C 1,4 km/h
14.07.2011 13:00 20,9 C 48 % 1017,0 hPa 0,0 l/m 0,0 km/h SW 9,5 C 20,9 C 0,0 km/h
14.07.2011 14:00 20,4 C 51 % 1016,9 hPa 0,0 l/m 19,4 km/h SW 9,9 C 16,8 C 10,8 km/h
14.07.2011 15:00 21,2 C 48 % 1016,7 hPa 0,0 l/m 15,6 km/h W 9,7 C 18,6 C 8,6 km/h
14.07.2011 16:00 22,4 C 42 % 1016,9 hPa 0,0 l/m 14,3 km/h W 8,9 C 20,3 C 7,9 km/h
14.07.2011 17:00 22,8 C 42 % 1016,7 hPa 0,0 l/m 7,8 km/h NW 9,2 C 22,4 C 4,3 km/h
14.07.2011 18:00 23,6 C 40 % 1016,9 hPa 0,0 l/m 18,8 km/h NW 9,2 C 21,0 C 10,4 km/h
14.07.2011 19:00 20,1 C 48 % 1017,3 hPa 0,0 l/m 0,0 km/h W-NW 8,7 C 20,1 C 0,0 km/h
14.07.2011 20:00 17,8 C 58 % 1017,5 hPa 0,0 l/m 0,0 km/h W 9,4 C 17,8 C 0,0 km/h
14.07.2011 21:00 15,3 C 69 % 1017,8 hPa 0,0 l/m 0,0 km/h O-NO 9,6 C 15,3 C 0,0 km/h
14.07.2011 22:00 11,9 C 79 % 1018,6 hPa 0,0 l/m 0,0 km/h O-NO 8,4 C 11,9 C 0,0 km/h
14.07.2011 23:00 10,6 C 83 % 1018,9 hPa 0,0 l/m 0,0 km/h SO 7,8 C 10,6 C 0,0 km/h
15.07.2011 00:00 9,9 C 85 % 1018,9 hPa 0,0 l/m 0,0 km/h O-SO 7,5 C 9,9 C 0,0 km/h
15.07.2011 01:00 9,4 C 85 % 1019,1 hPa 0,0 l/m 0,0 km/h SO 7,0 C 9,4 C 0,0 km/h
15.07.2011 02:00 8,9 C 86 % 1019,0 hPa 0,0 l/m 0,0 km/h SO 6,7 C 8,9 C 0,0 km/h
15.07.2011 03:00 8,7 C 86 % 1018,7 hPa 0,0 l/m 0,0 km/h SO 6,5 C 8,7 C 0,0 km/h
15.07.2011 04:00 9,2 C 86 % 1018,4 hPa 0,0 l/m 0,0 km/h SO 7,0 C 9,2 C 0,0 km/h
15.07.2011 05:00 8,9 C 86 % 1018,4 hPa 0,0 l/m 0,0 km/h S-SO 6,7 C 8,9 C 0,0 km/h
15.07.2011 06:00 9,2 C 86 % 1018,9 hPa 0,0 l/m 0,0 km/h SO 7,0 C 9,2 C 0,0 km/h
15.07.2011 07:00 11,3 C 86 % 1019,0 hPa 0,0 l/m 0,0 km/h O-SO 9,0 C 11,3 C 0,0 km/h
15.07.2011 08:00 14,6 C 76 % 1019,3 hPa 0,0 l/m 0,0 km/h N 10,4 C 14,6 C 0,0 km/h
15.07.2011 09:00 14,3 C 81 % 1019,6 hPa 0,0 l/m 0,0 km/h W-NW 11,1 C 14,3 C 0,0 km/h
15.07.2011 10:00 20,6 C 62 % 1019,7 hPa 0,0 l/m 0,0 km/h W-SW 13,1 C 20,6 C 0,0 km/h
15.07.2011 11:00 23,9 C 50 % 1019,8 hPa 0,0 l/m 0,0 km/h W-SW 12,8 C 23,9 C 0,0 km/h
15.07.2011 12:00 23,8 C 46 % 1019,6 hPa 0,0 l/m 14,9 km/h N-NW 11,5 C 21,9 C 8,3 km/h
15.07.2011 13:00 22,6 C 46 % 1019,3 hPa 0,0 l/m 0,0 km/h W-NW 10,4 C 22,6 C 0,0 km/h
15.07.2011 14:00 23,4 C 46 % 1019,1 hPa 0,0 l/m 14,9 km/h O-SO 11,1 C 21,4 C 8,3 km/h
15.07.2011 15:00 25,6 C 40 % 1018,7 hPa 0,0 l/m 0,0 km/h S-SW 11,0 C 25,6 C 0,0 km/h
15.07.2011 16:00 24,7 C 41 % 1018,3 hPa 0,0 l/m 11,0 km/h W 10,6 C 23,6 C 6,1 km/h
15.07.2011 17:00 28,6 C 31 % 1017,9 hPa 0,0 l/m 4,5 km/h S-SO 9,8 C 28,6 C 2,5 km/h
15.07.2011 18:00 29,3 C 29 % 1017,4 hPa 0,0 l/m 0,0 km/h N-NO 9,4 C 29,3 C 0,0 km/h
15.07.2011 19:00 27,4 C 30 % 1017,3 hPa 0,0 l/m 2,6 km/h O 8,3 C 27,4 C 1,4 km/h
15.07.2011 20:00 19,1 C 51 % 1017,3 hPa 0,0 l/m 0,0 km/h SO 8,7 C 19,1 C 0,0 km/h
15.07.2011 21:00 14,9 C 65 % 1017,2 hPa 0,0 l/m 0,0 km/h SO 8,4 C 14,9 C 0,0 km/h
15.07.2011 22:00 12,8 C 71 % 1017,3 hPa 0,0 l/m 0,0 km/h NO 7,7 C 12,8 C 0,0 km/h
15.07.2011 23:00 11,6 C 77 % 1017,3 hPa 0,0 l/m 0,0 km/h SO 7,7 C 11,6 C 0,0 km/h
16.07.2011 00:00 10,9 C 80 % 1017,0 hPa 0,0 l/m 0,0 km/h SO 7,6 C 10,9 C 0,0 km/h
16.07.2011 01:00 10,5 C 81 % 1016,5 hPa 0,0 l/m 0,0 km/h S-SO 7,4 C 10,5 C 0,0 km/h
16.07.2011 02:00 9,9 C 82 % 1016,1 hPa 0,0 l/m 0,0 km/h SO 7,0 C 9,9 C 0,0 km/h
16.07.2011 03:00 9,4 C 83 % 1015,7 hPa 0,0 l/m 0,0 km/h S-SO 6,7 C 9,4 C 0,0 km/h
16.07.2011 04:00 8,3 C 84 % 1014,9 hPa 0,0 l/m 1,3 km/h O-SO 5,8 C 8,3 C 0,7 km/h
16.07.2011 05:00 7,9 C 85 % 1014,3 hPa 0,0 l/m 0,0 km/h NO 5,5 C 7,9 C 0,0 km/h
16.07.2011 06:00 8,2 C 85 % 1014,4 hPa 0,0 l/m 0,0 km/h SO 5,8 C 8,2 C 0,0 km/h
16.07.2011 07:00 10,4 C 84 % 1014,2 hPa 0,0 l/m 0,0 km/h SO 7,8 C 10,4 C 0,0 km/h
16.07.2011 08:00 20,1 C 61 % 1013,9 hPa 0,0 l/m 4,5 km/h S-SO 12,3 C 20,1 C 2,5 km/h
16.07.2011 09:00 23,6 C 51 % 1013,2 hPa 0,0 l/m 0,0 km/h W 12,9 C 23,6 C 0,0 km/h
16.07.2011 10:00 26,7 C 44 % 1012,5 hPa 0,0 l/m 0,0 km/h N 13,4 C 26,7 C 0,0 km/h
16.07.2011 11:00 27,6 C 39 % 1012,0 hPa 0,0 l/m 1,9 km/h W-NW 12,4 C 27,6 C 1,1 km/h
16.07.2011 12:00 25,8 C 43 % 1010,8 hPa 0,0 l/m 5,2 km/h SW 12,3 C 25,8 C 2,9 km/h
16.07.2011 13:00 26,7 C 41 % 1010,0 hPa 0,0 l/m 22,0 km/h W-SW 12,3 C 24,7 C 12,2 km/h
16.07.2011 14:00 27,1 C 35 % 1009,3 hPa 0,0 l/m 13,0 km/h W-SW 10,3 C 26,1 C 7,2 km/h
16.07.2011 15:00 28,1 C 33 % 1008,2 hPa 0,0 l/m 24,6 km/h SW 10,3 C 26,4 C 13,7 km/h
16.07.2011 16:00 30,0 C 30 % 1007,5 hPa 0,0 l/m 21,4 km/h SW 10,5 C 29,1 C 11,9 km/h
16.07.2011 17:00 28,9 C 35 % 1006,5 hPa 0,0 l/m 21,4 km/h SW 11,9 C 27,6 C 11,9 km/h
16.07.2011 18:00 29,8 C 35 % 1005,5 hPa 0,0 l/m 22,7 km/h W 12,7 C 28,8 C 12,6 km/h
16.07.2011 19:00 24,8 C 44 % 1005,4 hPa 0,0 l/m 8,4 km/h W 11,7 C 24,3 C 4,7 km/h
16.07.2011 20:00 22,9 C 53 % 1004,7 hPa 0,0 l/m 0,0 km/h S-SW 12,8 C 22,9 C 0,0 km/h
16.07.2011 21:00 21,1 C 58 % 1004,5 hPa 0,0 l/m 0,0 km/h S-SO 12,5 C 21,1 C 0,0 km/h
16.07.2011 22:00 20,2 C 60 % 1004,2 hPa 0,0 l/m 3,2 km/h S 12,2 C 20,2 C 1,8 km/h
16.07.2011 23:00 20,8 C 57 % 1003,3 hPa 0,0 l/m 25,3 km/h W-SW 12,0 C 16,4 C 14,0 km/h
17.07.2011 00:00 22,6 C 51 % 1003,1 hPa 0,0 l/m 21,4 km/h W-SW 11,9 C 19,4 C 11,9 km/h
17.07.2011 01:00 22,2 C 53 % 1002,7 hPa 0,0 l/m 0,0 km/h W-NW 12,2 C 22,2 C 0,0 km/h
17.07.2011 02:00 21,9 C 55 % 1002,2 hPa 0,0 l/m 0,0 km/h N-NO 12,4 C 21,9 C 0,0 km/h
17.07.2011 03:00 20,8 C 60 % 1001,5 hPa 0,0 l/m 0,0 km/h O-NO 12,7 C 20,8 C 0,0 km/h
17.07.2011 04:00 19,4 C 68 % 1000,7 hPa 0,0 l/m 0,0 km/h SW 13,3 C 19,4 C 0,0 km/h
17.07.2011 05:00 22,3 C 56 % 1000,2 hPa 0,0 l/m 18,1 km/h W 13,1 C 19,5 C 10,1 km/h
17.07.2011 06:00 20,8 C 64 % 1000,5 hPa 0,0 l/m 0,0 km/h W 13,7 C 20,8 C 0,0 km/h
17.07.2011 07:00 17,3 C 70 % 1001,9 hPa 0,0 l/m 0,0 km/h SO 11,8 C 17,3 C 0,0 km/h
17.07.2011 08:00 15,8 C 81 % 1002,7 hPa 0,7 l/m 4,5 km/h S 12,5 C 15,8 C 2,5 km/h
17.07.2011 09:00 15,3 C 84 % 1003,2 hPa 1,4 l/m 0,0 km/h S 12,6 C 15,3 C 0,0 km/h
17.07.2011 10:00 16,0 C 84 % 1003,4 hPa 0,7 l/m 11,0 km/h SW 13,3 C 13,8 C 6,1 km/h
17.07.2011 11:00 15,5 C 84 % 1004,6 hPa 0,4 l/m 3,9 km/h W 12,8 C 15,5 C 2,2 km/h
17.07.2011 12:00 15,5 C 84 % 1004,4 hPa 0,4 l/m 3,2 km/h W-SW 12,8 C 15,5 C 1,8 km/h
17.07.2011 13:00 13,4 C 85 % 1005,4 hPa 0,7 l/m 22,0 km/h S-SW 10,9 C 7,2 C 12,2 km/h
17.07.2011 14:00 12,8 C 85 % 1005,7 hPa 0,7 l/m 14,9 km/h S-SW 10,3 C 8,6 C 8,3 km/h
17.07.2011 15:00 13,1 C 85 % 1005,9 hPa 0,4 l/m 9,7 km/h S 10,6 C 11,2 C 5,4 km/h
17.07.2011 16:00 13,2 C 84 % 1006,3 hPa 0,0 l/m 12,3 km/h SW 10,6 C 10,1 C 6,8 km/h
17.07.2011 17:00 14,9 C 80 % 1005,8 hPa 0,0 l/m 20,7 km/h SW 11,5 C 9,4 C 11,5 km/h
17.07.2011 18:00 16,3 C 68 % 1005,2 hPa 0,0 l/m 20,1 km/h W 10,4 C 11,4 C 11,2 km/h
17.07.2011 19:00 20,3 C 58 % 1004,8 hPa 0,0 l/m 16,8 km/h S 11,8 C 17,2 C 9,4 km/h
17.07.2011 20:00 15,8 C 69 % 1004,9 hPa 0,0 l/m 0,0 km/h NO 10,1 C 15,8 C 0,0 km/h
17.07.2011 21:00 12,6 C 80 % 1004,8 hPa 0,0 l/m 0,0 km/h NO 9,2 C 12,6 C 0,0 km/h
17.07.2011 22:00 12,8 C 83 % 1005,4 hPa 0,0 l/m 0,0 km/h NO 10,0 C 12,8 C 0,0 km/h
17.07.2011 23:00 13,2 C 83 % 1005,6 hPa 0,0 l/m 2,6 km/h W 10,4 C 13,2 C 1,4 km/h
Min-Datum _ 16.07.11 15.07.11 17.07.11 - 11.07.11 - 16.07.11 17.07.11 11.07.11
_ Min-Zeit 05:30 18:30 05:30 - 01:30 - 05:30 13:30 01:30
Minimum _ 7,9 C 29 % 1000,2 hPa - 0,0 km/h - 5,5 C 7,2 C 0,0 km/h
Max-Datum _ 12.07.11 11.07.11 15.07.11 12.07.11 13.07.11 - 12.07.11 12.07.11 13.07.11
_ Max-Zeit 16:30 05:30 11:30 19:30 05:30 - 16:30 16:30 05:30
Maximum _ 36,9 C 86 % 1019,8 hPa 5,3 l/m 26,6 km/h
O-SO
- 21,8 C 36,9 C 14,8 km/h
O-SO
Durchschnitt _ 19,5 C 68 % 1012,1 hPa #26,0 l/m 4,9 km/h SO 12,7 C 18,8 C 2,7 km/h
www.sexauwetter.de